sensor_id;sensor_type;location;lat;lon;timestamp;temperature;humidity
9941;DHT22;5009;50.656;7.188;2023-02-23T03:59:58;10.20;99.90
9941;DHT22;5009;50.656;7.188;2023-02-23T04:02:45;10.20;99.90
9941;DHT22;5009;50.656;7.188;2023-02-23T04:05:30;10.20;99.90
9941;DHT22;5009;50.656;7.188;2023-02-23T04:08:17;10.20;99.90
9941;DHT22;5009;50.656;7.188;2023-02-23T04:11:27;10.20;99.90
9941;DHT22;5009;50.656;7.188;2023-02-23T04:14:41;10.20;99.90
9941;DHT22;5009;50.656;7.188;2023-02-23T04:17:08;10.20;99.90
9941;DHT22;5009;50.656;7.188;2023-02-23T04:19:34;10.30;99.90
9941;DHT22;5009;50.656;7.188;2023-02-23T04:22:00;10.30;99.90
9941;DHT22;5009;50.656;7.188;2023-02-23T04:24:26;10.30;99.90
9941;DHT22;5009;50.656;7.188;2023-02-23T04:26:51;10.40;99.90
9941;DHT22;5009;50.656;7.188;2023-02-23T04:29:17;10.30;99.90
9941;DHT22;5009;50.656;7.188;2023-02-23T04:31:42;10.40;99.90
9941;DHT22;5009;50.656;7.188;2023-02-23T04:34:08;10.40;99.90
9941;DHT22;5009;50.656;7.188;2023-02-23T04:36:34;10.40;99.90
9941;DHT22;5009;50.656;7.188;2023-02-23T04:39:00;10.40;99.90
9941;DHT22;5009;50.656;7.188;2023-02-23T04:41:26;10.40;99.90
9941;DHT22;5009;50.656;7.188;2023-02-23T04:43:55;10.40;99.90
9941;DHT22;5009;50.656;7.188;2023-02-23T04:46:20;10.40;99.90
9941;DHT22;5009;50.656;7.188;2023-02-23T04:48:51;10.40;99.90
9941;DHT22;5009;50.656;7.188;2023-02-23T04:51:17;10.30;99.90
9941;DHT22;5009;50.656;7.188;2023-02-23T04:53:43;10.30;99.90
9941;DHT22;5009;50.656;7.188;2023-02-23T04:56:08;10.30;99.90
9941;DHT22;5009;50.656;7.188;2023-02-23T04:58:34;10.40;99.90
9941;DHT22;5009;50.656;7.188;2023-02-23T05:01:05;10.40;99.90
9941;DHT22;5009;50.656;7.188;2023-02-23T05:03:31;10.40;99.90
9941;DHT22;5009;50.656;7.188;2023-02-23T05:05:56;10.40;99.90
9941;DHT22;5009;50.656;7.188;2023-02-23T05:08:22;10.40;99.90
9941;DHT22;5009;50.656;7.188;2023-02-23T05:10:47;10.40;99.90
9941;DHT22;5009;50.656;7.188;2023-02-23T05:13:13;10.40;99.90
9941;DHT22;5009;50.656;7.188;2023-02-23T05:15:38;10.40;99.90
9941;DHT22;5009;50.656;7.188;2023-02-23T05:18:04;10.50;99.90
9941;DHT22;5009;50.656;7.188;2023-02-23T05:20:31;10.40;99.90
9941;DHT22;5009;50.656;7.188;2023-02-23T05:22:57;10.40;99.90
9941;DHT22;5009;50.656;7.188;2023-02-23T05:25:22;10.50;99.90
9941;DHT22;5009;50.656;7.188;2023-02-23T05:27:48;10.50;99.90
9941;DHT22;5009;50.656;7.188;2023-02-23T05:30:14;10.50;99.90
9941;DHT22;5009;50.656;7.188;2023-02-23T05:32:40;10.50;99.90
9941;DHT22;5009;50.656;7.188;2023-02-23T05:35:05;10.50;99.90
9941;DHT22;5009;50.656;7.188;2023-02-23T05:37:32;10.50;99.90
9941;DHT22;5009;50.656;7.188;2023-02-23T05:39:58;10.50;99.90
9941;DHT22;5009;50.656;7.188;2023-02-23T05:42:23;10.50;99.90
9941;DHT22;5009;50.656;7.188;2023-02-23T05:44:49;10.50;99.90
9941;DHT22;5009;50.656;7.188;2023-02-23T05:47:14;10.50;99.90
9941;DHT22;5009;50.656;7.188;2023-02-23T05:49:40;10.50;99.90
9941;DHT22;5009;50.656;7.188;2023-02-23T05:52:05;10.50;99.90
9941;DHT22;5009;50.656;7.188;2023-02-23T05:54:31;10.50;99.90
9941;DHT22;5009;50.656;7.188;2023-02-23T05:56:56;10.50;99.90
9941;DHT22;5009;50.656;7.188;2023-02-23T05:59:22;10.50;99.90
9941;DHT22;5009;50.656;7.188;2023-02-23T06:01:48;10.50;99.90
9941;DHT22;5009;50.656;7.188;2023-02-23T06:04:13;10.50;99.90
9941;DHT22;5009;50.656;7.188;2023-02-23T06:06:39;10.50;99.90
9941;DHT22;5009;50.656;7.188;2023-02-23T06:09:04;10.50;99.90
9941;DHT22;5009;50.656;7.188;2023-02-23T06:11:30;10.40;99.90
9941;DHT22;5009;50.656;7.188;2023-02-23T06:13:59;10.50;99.90
9941;DHT22;5009;50.656;7.188;2023-02-23T06:16:25;10.50;99.90
9941;DHT22;5009;50.656;7.188;2023-02-23T06:18:51;10.50;99.90
9941;DHT22;5009;50.656;7.188;2023-02-23T06:21:17;10.40;99.90
9941;DHT22;5009;50.656;7.188;2023-02-23T06:23:42;10.40;99.90
9941;DHT22;5009;50.656;7.188;2023-02-23T06:26:08;10.40;99.90
9941;DHT22;5009;50.656;7.188;2023-02-23T06:28:34;10.40;99.90
9941;DHT22;5009;50.656;7.188;2023-02-23T06:30:59;10.40;99.90
9941;DHT22;5009;50.656;7.188;2023-02-23T06:33:25;10.40;99.90
9941;DHT22;5009;50.656;7.188;2023-02-23T06:35:51;10.40;99.90
9941;DHT22;5009;50.656;7.188;2023-02-23T06:38:17;10.40;99.90
9941;DHT22;5009;50.656;7.188;2023-02-23T06:40:43;10.40;99.90
9941;DHT22;5009;50.656;7.188;2023-02-23T06:43:09;10.40;99.90
9941;DHT22;5009;50.656;7.188;2023-02-23T06:45:34;10.40;99.90
9941;DHT22;5009;50.656;7.188;2023-02-23T06:48:00;10.40;99.90
9941;DHT22;5009;50.656;7.188;2023-02-23T06:50:26;10.40;99.90
9941;DHT22;5009;50.656;7.188;2023-02-23T06:52:51;10.40;99.90
9941;DHT22;5009;50.656;7.188;2023-02-23T06:55:17;10.40;99.90
9941;DHT22;5009;50.656;7.188;2023-02-23T06:57:43;10.40;99.90
9941;DHT22;5009;50.656;7.188;2023-02-23T07:00:12;10.40;99.90
9941;DHT22;5009;50.656;7.188;2023-02-23T07:02:40;10.40;99.90
9941;DHT22;5009;50.656;7.188;2023-02-23T07:05:06;10.40;99.90
9941;DHT22;5009;50.656;7.188;2023-02-23T07:07:32;10.40;99.90
9941;DHT22;5009;50.656;7.188;2023-02-23T07:09:57;10.40;99.90
9941;DHT22;5009;50.656;7.188;2023-02-23T07:12:23;10.40;99.90
9941;DHT22;5009;50.656;7.188;2023-02-23T07:14:48;10.40;99.90
9941;DHT22;5009;50.656;7.188;2023-02-23T07:17:14;10.40;99.90
9941;DHT22;5009;50.656;7.188;2023-02-23T07:19:40;10.40;99.90
9941;DHT22;5009;50.656;7.188;2023-02-23T07:22:05;10.40;99.90
9941;DHT22;5009;50.656;7.188;2023-02-23T07:24:31;10.40;99.90
9941;DHT22;5009;50.656;7.188;2023-02-23T07:26:56;10.40;99.90
9941;DHT22;5009;50.656;7.188;2023-02-23T07:29:22;10.50;99.90
9941;DHT22;5009;50.656;7.188;2023-02-23T07:31:48;10.40;99.90
9941;DHT22;5009;50.656;7.188;2023-02-23T07:34:14;10.50;99.90
9941;DHT22;5009;50.656;7.188;2023-02-23T07:36:40;10.50;99.90
9941;DHT22;5009;50.656;7.188;2023-02-23T07:39:06;10.50;99.90
9941;DHT22;5009;50.656;7.188;2023-02-23T07:41:32;10.50;99.90
9941;DHT22;5009;50.656;7.188;2023-02-23T07:43:58;10.50;99.90
9941;DHT22;5009;50.656;7.188;2023-02-23T07:46:24;10.50;99.90
9941;DHT22;5009;50.656;7.188;2023-02-23T07:48:50;10.50;99.90
9941;DHT22;5009;50.656;7.188;2023-02-23T07:51:16;10.50;99.90
9941;DHT22;5009;50.656;7.188;2023-02-23T07:53:43;10.60;99.90
9941;DHT22;5009;50.656;7.188;2023-02-23T07:56:09;10.60;99.90
9941;DHT22;5009;50.656;7.188;2023-02-23T07:58:37;10.60;99.90
9941;DHT22;5009;50.656;7.188;2023-02-23T08:01:03;10.60;99.90
9941;DHT22;5009;50.656;7.188;2023-02-23T08:03:29;10.60;99.90
9941;DHT22;5009;50.656;7.188;2023-02-23T08:05:55;10.60;99.90
9941;DHT22;5009;50.656;7.188;2023-02-23T08:08:21;10.60;99.90
9941;DHT22;5009;50.656;7.188;2023-02-23T08:10:47;10.60;99.90
9941;DHT22;5009;50.656;7.188;2023-02-23T08:13:13;10.60;99.90
9941;DHT22;5009;50.656;7.188;2023-02-23T08:15:40;10.60;99.90
9941;DHT22;5009;50.656;7.188;2023-02-23T08:18:05;10.60;99.90
9941;DHT22;5009;50.656;7.188;2023-02-23T08:20:31;10.60;99.90
9941;DHT22;5009;50.656;7.188;2023-02-23T08:22:57;10.60;99.90
9941;DHT22;5009;50.656;7.188;2023-02-23T08:25:24;10.60;99.90
9941;DHT22;5009;50.656;7.188;2023-02-23T08:27:50;10.60;99.90
9941;DHT22;5009;50.656;7.188;2023-02-23T08:30:17;10.60;99.90
9941;DHT22;5009;50.656;7.188;2023-02-23T08:32:44;10.60;99.90
9941;DHT22;5009;50.656;7.188;2023-02-23T08:35:10;10.60;99.90
9941;DHT22;5009;50.656;7.188;2023-02-23T08:37:36;10.70;99.90
9941;DHT22;5009;50.656;7.188;2023-02-23T08:40:01;10.70;99.90
9941;DHT22;5009;50.656;7.188;2023-02-23T08:42:27;10.70;99.90
9941;DHT22;5009;50.656;7.188;2023-02-23T08:44:52;10.80;99.90
9941;DHT22;5009;50.656;7.188;2023-02-23T08:47:18;10.80;99.90
9941;DHT22;5009;50.656;7.188;2023-02-23T08:49:49;10.90;99.90
9941;DHT22;5009;50.656;7.188;2023-02-23T08:52:15;10.90;99.90
9941;DHT22;5009;50.656;7.188;2023-02-23T08:54:41;11.00;99.90
9941;DHT22;5009;50.656;7.188;2023-02-23T08:57:06;11.10;99.90
9941;DHT22;5009;50.656;7.188;2023-02-23T08:59:32;11.10;99.90
9941;DHT22;5009;50.656;7.188;2023-02-23T09:01:57;11.10;99.90
9941;DHT22;5009;50.656;7.188;2023-02-23T09:04:23;11.10;99.90
9941;DHT22;5009;50.656;7.188;2023-02-23T09:06:49;11.20;99.90
9941;DHT22;5009;50.656;7.188;2023-02-23T09:09:15;11.20;99.90
9941;DHT22;5009;50.656;7.188;2023-02-23T09:11:41;11.30;99.90
9941;DHT22;5009;50.656;7.188;2023-02-23T09:14:07;11.40;99.90
9941;DHT22;5009;50.656;7.188;2023-02-23T09:16:34;11.40;99.90
9941;DHT22;5009;50.656;7.188;2023-02-23T09:19:02;11.50;99.90
9941;DHT22;5009;50.656;7.188;2023-02-23T09:21:28;11.60;99.90
9941;DHT22;5009;50.656;7.188;2023-02-23T09:23:55;11.60;99.90
9941;DHT22;5009;50.656;7.188;2023-02-23T09:26:22;11.70;99.90
9941;DHT22;5009;50.656;7.188;2023-02-23T09:28:49;11.70;99.90
9941;DHT22;5009;50.656;7.188;2023-02-23T09:31:17;11.80;99.90
9941;DHT22;5009;50.656;7.188;2023-02-23T09:33:43;11.80;99.90
9941;DHT22;5009;50.656;7.188;2023-02-23T09:36:15;11.80;99.90
9941;DHT22;5009;50.656;7.188;2023-02-23T09:38:42;11.80;99.90
9941;DHT22;5009;50.656;7.188;2023-02-23T09:49:57;11.90;99.90
9941;DHT22;5009;50.656;7.188;2023-02-23T09:52:28;11.90;99.90
9941;DHT22;5009;50.656;7.188;2023-02-23T09:55:00;11.90;99.90
9941;DHT22;5009;50.656;7.188;2023-02-23T09:57:36;11.90;99.90
9941;DHT22;5009;50.656;7.188;2023-02-23T10:00:09;11.90;99.90
9941;DHT22;5009;50.656;7.188;2023-02-23T10:02:37;12.00;99.90
9941;DHT22;5009;50.656;7.188;2023-02-23T10:05:14;12.10;99.90
9941;DHT22;5009;50.656;7.188;2023-02-23T10:07:54;12.10;99.90
9941;DHT22;5009;50.656;7.188;2023-02-23T10:10:47;12.10;99.90
9941;DHT22;5009;50.656;7.188;2023-02-23T10:16:06;12.00;99.90
9941;DHT22;5009;50.656;7.188;2023-02-23T10:18:44;12.00;99.90
9941;DHT22;5009;50.656;7.188;2023-02-23T10:21:42;12.20;99.90
9941;DHT22;5009;50.656;7.188;2023-02-23T10:24:59;12.10;99.90
9941;DHT22;5009;50.656;7.188;2023-02-23T10:27:29;12.20;99.90
9941;DHT22;5009;50.656;7.188;2023-02-23T10:29:58;12.10;99.90
9941;DHT22;5009;50.656;7.188;2023-02-23T10:32:44;12.10;99.90
9941;DHT22;5009;50.656;7.188;2023-02-23T10:35:15;12.10;99.90
9941;DHT22;5009;50.656;7.188;2023-02-23T10:37:41;12.00;99.90
9941;DHT22;5009;50.656;7.188;2023-02-23T10:40:17;12.00;99.90
9941;DHT22;5009;50.656;7.188;2023-02-23T10:42:43;12.00;99.90
9941;DHT22;5009;50.656;7.188;2023-02-23T10:45:17;12.00;99.90
9941;DHT22;5009;50.656;7.188;2023-02-23T10:48:02;12.00;99.90
9941;DHT22;5009;50.656;7.188;2023-02-23T10:50:31;12.00;99.90
9941;DHT22;5009;50.656;7.188;2023-02-23T10:53:14;11.90;99.90
9941;DHT22;5009;50.656;7.188;2023-02-23T10:55:42;11.90;99.90
9941;DHT22;5009;50.656;7.188;2023-02-23T10:58:11;11.90;99.90
9941;DHT22;5009;50.656;7.188;2023-02-23T11:00:58;12.00;99.90
9941;DHT22;5009;50.656;7.188;2023-02-23T11:06:05;12.20;99.90
9941;DHT22;5009;50.656;7.188;2023-02-23T11:08:33;12.20;99.90
9941;DHT22;5009;50.656;7.188;2023-02-23T11:13:47;12.40;99.90
9941;DHT22;5009;50.656;7.188;2023-02-23T11:16:19;12.40;99.90
9941;DHT22;5009;50.656;7.188;2023-02-23T11:21:24;12.50;99.90
9941;DHT22;5009;50.656;7.188;2023-02-23T11:23:53;12.60;99.90
9941;DHT22;5009;50.656;7.188;2023-02-23T11:26:34;12.70;99.90
9941;DHT22;5009;50.656;7.188;2023-02-23T11:29:10;12.70;99.90
9941;DHT22;5009;50.656;7.188;2023-02-23T11:31:37;12.70;99.90
9941;DHT22;5009;50.656;7.188;2023-02-23T11:34:05;12.70;99.90
9941;DHT22;5009;50.656;7.188;2023-02-23T11:36:35;12.60;99.90
9941;DHT22;5009;50.656;7.188;2023-02-23T11:41:26;12.60;99.90
9941;DHT22;5009;50.656;7.188;2023-02-23T11:43:58;12.70;99.90
9941;DHT22;5009;50.656;7.188;2023-02-23T11:46:25;12.70;99.90
9941;DHT22;5009;50.656;7.188;2023-02-23T11:48:53;12.80;99.90
9941;DHT22;5009;50.656;7.188;2023-02-23T11:51:25;12.80;99.90
9941;DHT22;5009;50.656;7.188;2023-02-23T11:53:51;12.90;99.90
9941;DHT22;5009;50.656;7.188;2023-02-23T11:56:22;12.80;99.90
9941;DHT22;5009;50.656;7.188;2023-02-23T11:59:06;12.80;99.90
9941;DHT22;5009;50.656;7.188;2023-02-23T12:01:44;12.80;99.90
9941;DHT22;5009;50.656;7.188;2023-02-23T12:04:27;12.70;99.90
9941;DHT22;5009;50.656;7.188;2023-02-23T12:07:20;12.60;99.90
9941;DHT22;5009;50.656;7.188;2023-02-23T12:09:59;12.50;99.90
9941;DHT22;5009;50.656;7.188;2023-02-23T12:12:27;12.30;99.90
9941;DHT22;5009;50.656;7.188;2023-02-23T12:15:09;12.20;99.90
9941;DHT22;5009;50.656;7.188;2023-02-23T12:17:50;12.20;99.90
9941;DHT22;5009;50.656;7.188;2023-02-23T12:20:33;12.30;99.90
9941;DHT22;5009;50.656;7.188;2023-02-23T12:23:07;12.40;99.90
9941;DHT22;5009;50.656;7.188;2023-02-23T12:25:49;12.50;99.90
9941;DHT22;5009;50.656;7.188;2023-02-23T12:28:25;12.60;99.90
9941;DHT22;5009;50.656;7.188;2023-02-23T12:33:47;12.60;99.90
9941;DHT22;5009;50.656;7.188;2023-02-23T12:39:22;12.50;99.90
9941;DHT22;5009;50.656;7.188;2023-02-23T12:42:16;12.50;99.90
9941;DHT22;5009;50.656;7.188;2023-02-23T12:44:46;12.50;99.90
9941;DHT22;5009;50.656;7.188;2023-02-23T12:47:34;12.40;99.90
9941;DHT22;5009;50.656;7.188;2023-02-23T12:50:15;12.40;99.90
9941;DHT22;5009;50.656;7.188;2023-02-23T12:53:11;12.30;99.90
9941;DHT22;5009;50.656;7.188;2023-02-23T12:55:49;12.20;99.90
9941;DHT22;5009;50.656;7.188;2023-02-23T13:01:03;12.10;99.90
9941;DHT22;5009;50.656;7.188;2023-02-23T13:03:34;12.10;99.90
9941;DHT22;5009;50.656;7.188;2023-02-23T13:14:54;12.00;99.90
9941;DHT22;5009;50.656;7.188;2023-02-23T13:20:02;12.10;99.90
9941;DHT22;5009;50.656;7.188;2023-02-23T13:26:03;12.10;99.90
9941;DHT22;5009;50.656;7.188;2023-02-23T13:29:00;12.10;99.90
9941;DHT22;5009;50.656;7.188;2023-02-23T13:31:33;12.00;99.90
9941;DHT22;5009;50.656;7.188;2023-02-23T13:34:01;12.00;99.90
9941;DHT22;5009;50.656;7.188;2023-02-23T13:36:28;11.90;99.90
9941;DHT22;5009;50.656;7.188;2023-02-23T13:44:47;11.90;99.90
9941;DHT22;5009;50.656;7.188;2023-02-23T13:50:13;11.80;99.90
9941;DHT22;5009;50.656;7.188;2023-02-23T13:52:42;11.80;99.90
9941;DHT22;5009;50.656;7.188;2023-02-23T13:57:55;11.80;99.90
9941;DHT22;5009;50.656;7.188;2023-02-23T14:00:27;11.70;99.90
9941;DHT22;5009;50.656;7.188;2023-02-23T14:02:53;11.50;99.90
9941;DHT22;5009;50.656;7.188;2023-02-23T14:05:21;11.30;99.90
9941;DHT22;5009;50.656;7.188;2023-02-23T14:08:07;11.10;99.90
9941;DHT22;5009;50.656;7.188;2023-02-23T14:10:43;10.90;99.90
9941;DHT22;5009;50.656;7.188;2023-02-23T14:21:17;10.30;99.90
9941;DHT22;5009;50.656;7.188;2023-02-23T14:26:35;10.30;99.90
9941;DHT22;5009;50.656;7.188;2023-02-23T14:29:22;10.20;99.90
9941;DHT22;5009;50.656;7.188;2023-02-23T14:34:54;9.90;99.90
9941;DHT22;5009;50.656;7.188;2023-02-23T14:37:37;9.90;99.90
9941;DHT22;5009;50.656;7.188;2023-02-23T14:40:08;9.80;99.90
9941;DHT22;5009;50.656;7.188;2023-02-23T14:42:37;9.90;99.90
9941;DHT22;5009;50.656;7.188;2023-02-23T14:47:46;10.00;99.90
9941;DHT22;5009;50.656;7.188;2023-02-23T14:50:23;10.00;99.90
9941;DHT22;5009;50.656;7.188;2023-02-23T14:52:50;10.10;99.90
9941;DHT22;5009;50.656;7.188;2023-02-23T14:55:24;10.10;99.90
9941;DHT22;5009;50.656;7.188;2023-02-23T14:57:50;10.20;99.90
9941;DHT22;5009;50.656;7.188;2023-02-23T15:00:27;10.30;99.90
9941;DHT22;5009;50.656;7.188;2023-02-23T15:03:05;10.30;99.90
9941;DHT22;5009;50.656;7.188;2023-02-23T15:05:42;10.30;99.90
9941;DHT22;5009;50.656;7.188;2023-02-23T15:08:13;10.40;99.90
9941;DHT22;5009;50.656;7.188;2023-02-23T15:10:42;10.50;99.90
9941;DHT22;5009;50.656;7.188;2023-02-23T15:13:11;10.50;99.90
9941;DHT22;5009;50.656;7.188;2023-02-23T15:15:43;10.50;99.90
9941;DHT22;5009;50.656;7.188;2023-02-23T15:21:35;10.50;99.90
9941;DHT22;5009;50.656;7.188;2023-02-23T15:24:11;10.50;99.90
9941;DHT22;5009;50.656;7.188;2023-02-23T15:26:40;10.50;99.90
9941;DHT22;5009;50.656;7.188;2023-02-23T15:29:19;10.50;99.90
9941;DHT22;5009;50.656;7.188;2023-02-23T15:31:51;10.40;99.90
9941;DHT22;5009;50.656;7.188;2023-02-23T15:34:28;10.40;99.90
9941;DHT22;5009;50.656;7.188;2023-02-23T15:37:05;10.40;99.90
9941;DHT22;5009;50.656;7.188;2023-02-23T15:39:38;10.30;99.90
9941;DHT22;5009;50.656;7.188;2023-02-23T15:42:07;10.20;99.90
9941;DHT22;5009;50.656;7.188;2023-02-23T15:44:36;10.20;99.90
9941;DHT22;5009;50.656;7.188;2023-02-23T15:47:04;10.20;99.90
9941;DHT22;5009;50.656;7.188;2023-02-23T15:49:32;10.30;99.90
9941;DHT22;5009;50.656;7.188;2023-02-23T15:52:02;10.30;99.90
9941;DHT22;5009;50.656;7.188;2023-02-23T15:54:42;10.30;99.90
9941;DHT22;5009;50.656;7.188;2023-02-23T15:57:21;10.30;99.90
9941;DHT22;5009;50.656;7.188;2023-02-23T15:59:51;10.20;99.90
9941;DHT22;5009;50.656;7.188;2023-02-23T16:02:19;10.20;99.90
9941;DHT22;5009;50.656;7.188;2023-02-23T16:04:48;10.30;99.90
9941;DHT22;5009;50.656;7.188;2023-02-23T16:12:31;10.20;99.90
9941;DHT22;5009;50.656;7.188;2023-02-23T16:15:03;10.30;99.90
9941;DHT22;5009;50.656;7.188;2023-02-23T16:17:44;10.30;99.90
9941;DHT22;5009;50.656;7.188;2023-02-23T16:22:45;10.30;99.90
9941;DHT22;5009;50.656;7.188;2023-02-23T16:25:14;10.30;99.90
9941;DHT22;5009;50.656;7.188;2023-02-23T16:27:41;10.30;99.90
9941;DHT22;5009;50.656;7.188;2023-02-23T16:30:32;10.30;99.90
9941;DHT22;5009;50.656;7.188;2023-02-23T16:35:43;10.30;99.90
9941;DHT22;5009;50.656;7.188;2023-02-23T16:40:48;10.30;99.90
9941;DHT22;5009;50.656;7.188;2023-02-23T16:43:14;10.30;99.90
9941;DHT22;5009;50.656;7.188;2023-02-23T16:45:41;10.20;99.90
9941;DHT22;5009;50.656;7.188;2023-02-23T16:48:15;10.20;99.90
9941;DHT22;5009;50.656;7.188;2023-02-23T16:50:41;10.10;99.90
9941;DHT22;5009;50.656;7.188;2023-02-23T16:53:08;10.10;99.90
9941;DHT22;5009;50.656;7.188;2023-02-23T16:55:37;10.10;99.90
9941;DHT22;5009;50.656;7.188;2023-02-23T16:58:12;10.20;99.90
9941;DHT22;5009;50.656;7.188;2023-02-23T17:00:39;10.20;99.90
9941;DHT22;5009;50.656;7.188;2023-02-23T17:03:05;10.20;99.90
9941;DHT22;5009;50.656;7.188;2023-02-23T17:05:31;10.10;99.90
9941;DHT22;5009;50.656;7.188;2023-02-23T17:07:57;10.10;99.90
9941;DHT22;5009;50.656;7.188;2023-02-23T17:10:32;10.00;99.90
9941;DHT22;5009;50.656;7.188;2023-02-23T17:13:01;10.00;99.90
9941;DHT22;5009;50.656;7.188;2023-02-23T17:15:34;10.00;99.90
9941;DHT22;5009;50.656;7.188;2023-02-23T17:18:00;10.00;99.90
9941;DHT22;5009;50.656;7.188;2023-02-23T17:20:26;10.00;99.90
9941;DHT22;5009;50.656;7.188;2023-02-23T17:22:54;10.00;99.90
9941;DHT22;5009;50.656;7.188;2023-02-23T17:25:20;9.90;99.90
9941;DHT22;5009;50.656;7.188;2023-02-23T17:27:54;10.00;99.90
9941;DHT22;5009;50.656;7.188;2023-02-23T17:30:21;9.90;99.90
9941;DHT22;5009;50.656;7.188;2023-02-23T17:32:47;9.90;99.90
9941;DHT22;5009;50.656;7.188;2023-02-23T17:35:13;9.90;99.90
9941;DHT22;5009;50.656;7.188;2023-02-23T17:37:39;9.90;99.90
9941;DHT22;5009;50.656;7.188;2023-02-23T17:40:06;9.90;99.90
9941;DHT22;5009;50.656;7.188;2023-02-23T17:42:32;9.90;99.90
9941;DHT22;5009;50.656;7.188;2023-02-23T17:45:04;9.90;99.90
9941;DHT22;5009;50.656;7.188;2023-02-23T17:47:30;9.90;99.90
9941;DHT22;5009;50.656;7.188;2023-02-23T17:49:57;9.90;99.90
9941;DHT22;5009;50.656;7.188;2023-02-23T17:52:23;9.90;99.90
9941;DHT22;5009;50.656;7.188;2023-02-23T17:54:48;9.90;99.90
9941;DHT22;5009;50.656;7.188;2023-02-23T17:57:14;9.90;99.90
9941;DHT22;5009;50.656;7.188;2023-02-23T17:59:40;9.90;99.90
9941;DHT22;5009;50.656;7.188;2023-02-23T18:02:09;9.80;99.90
9941;DHT22;5009;50.656;7.188;2023-02-23T18:04:37;9.90;99.90
9941;DHT22;5009;50.656;7.188;2023-02-23T18:07:03;9.80;99.90
9941;DHT22;5009;50.656;7.188;2023-02-23T18:09:28;9.80;99.90
9941;DHT22;5009;50.656;7.188;2023-02-23T18:11:54;9.80;99.90
9941;DHT22;5009;50.656;7.188;2023-02-23T18:14:20;9.80;99.90
9941;DHT22;5009;50.656;7.188;2023-02-23T18:16:46;9.80;99.90
9941;DHT22;5009;50.656;7.188;2023-02-23T18:19:12;9.80;99.90
9941;DHT22;5009;50.656;7.188;2023-02-23T18:21:38;9.80;99.90
9941;DHT22;5009;50.656;7.188;2023-02-23T18:24:05;9.80;99.90
9941;DHT22;5009;50.656;7.188;2023-02-23T18:26:31;9.80;99.90
9941;DHT22;5009;50.656;7.188;2023-02-23T18:28:57;9.80;99.90
9941;DHT22;5009;50.656;7.188;2023-02-23T18:31:25;9.80;99.90
9941;DHT22;5009;50.656;7.188;2023-02-23T18:33:52;9.80;99.90
9941;DHT22;5009;50.656;7.188;2023-02-23T18:36:23;9.80;99.90
9941;DHT22;5009;50.656;7.188;2023-02-23T18:38:50;9.80;99.90
9941;DHT22;5009;50.656;7.188;2023-02-23T18:41:16;9.80;99.90
9941;DHT22;5009;50.656;7.188;2023-02-23T18:43:42;9.70;99.90
9941;DHT22;5009;50.656;7.188;2023-02-23T18:46:11;9.70;99.90
9941;DHT22;5009;50.656;7.188;2023-02-23T18:48:38;9.60;99.90
9941;DHT22;5009;50.656;7.188;2023-02-23T18:51:05;9.50;99.90
9941;DHT22;5009;50.656;7.188;2023-02-23T18:53:35;9.40;99.90
9941;DHT22;5009;50.656;7.188;2023-02-23T18:56:13;9.40;99.90
9941;DHT22;5009;50.656;7.188;2023-02-23T18:58:39;9.40;99.90
9941;DHT22;5009;50.656;7.188;2023-02-23T19:01:20;9.40;99.90
9941;DHT22;5009;50.656;7.188;2023-02-23T19:03:47;9.40;99.90
9941;DHT22;5009;50.656;7.188;2023-02-23T19:06:14;9.40;99.90
9941;DHT22;5009;50.656;7.188;2023-02-23T19:08:43;9.40;99.90
9941;DHT22;5009;50.656;7.188;2023-02-23T19:11:10;9.30;99.90
9941;DHT22;5009;50.656;7.188;2023-02-23T19:13:36;9.30;99.90
9941;DHT22;5009;50.656;7.188;2023-02-23T19:16:06;9.40;99.90
9941;DHT22;5009;50.656;7.188;2023-02-23T19:18:33;9.40;99.90
9941;DHT22;5009;50.656;7.188;2023-02-23T19:21:00;9.40;99.90
9941;DHT22;5009;50.656;7.188;2023-02-23T19:23:25;9.40;99.90
9941;DHT22;5009;50.656;7.188;2023-02-23T19:25:51;9.40;99.90
9941;DHT22;5009;50.656;7.188;2023-02-23T19:28:17;9.40;99.90
9941;DHT22;5009;50.656;7.188;2023-02-23T19:30:43;9.40;99.90
9941;DHT22;5009;50.656;7.188;2023-02-23T19:33:11;9.40;99.90
9941;DHT22;5009;50.656;7.188;2023-02-23T19:35:41;9.40;99.90
9941;DHT22;5009;50.656;7.188;2023-02-23T19:38:06;9.40;99.90
9941;DHT22;5009;50.656;7.188;2023-02-23T19:40:32;9.40;99.90
9941;DHT22;5009;50.656;7.188;2023-02-23T19:43:01;9.40;99.90
9941;DHT22;5009;50.656;7.188;2023-02-23T19:45:27;9.40;99.90
9941;DHT22;5009;50.656;7.188;2023-02-23T19:47:54;9.40;99.90
9941;DHT22;5009;50.656;7.188;2023-02-23T19:50:28;9.40;99.90
9941;DHT22;5009;50.656;7.188;2023-02-23T19:52:53;9.40;99.90
9941;DHT22;5009;50.656;7.188;2023-02-23T19:55:19;9.40;99.90
9941;DHT22;5009;50.656;7.188;2023-02-23T19:57:45;9.40;99.90
9941;DHT22;5009;50.656;7.188;2023-02-23T20:00:11;9.40;99.90
9941;DHT22;5009;50.656;7.188;2023-02-23T20:02:39;9.40;99.90
9941;DHT22;5009;50.656;7.188;2023-02-23T20:05:11;9.40;99.90
9941;DHT22;5009;50.656;7.188;2023-02-23T20:07:37;9.40;99.90
9941;DHT22;5009;50.656;7.188;2023-02-23T20:10:04;9.40;99.90
9941;DHT22;5009;50.656;7.188;2023-02-23T20:12:31;9.40;99.90
9941;DHT22;5009;50.656;7.188;2023-02-23T20:14:57;9.40;99.90
9941;DHT22;5009;50.656;7.188;2023-02-23T20:17:22;9.40;99.90
9941;DHT22;5009;50.656;7.188;2023-02-23T20:19:48;9.40;99.90
9941;DHT22;5009;50.656;7.188;2023-02-23T20:22:14;9.40;99.90
9941;DHT22;5009;50.656;7.188;2023-02-23T20:24:39;9.40;99.90
9941;DHT22;5009;50.656;7.188;2023-02-23T20:27:06;9.40;99.90
9941;DHT22;5009;50.656;7.188;2023-02-23T20:29:31;9.40;99.90
9941;DHT22;5009;50.656;7.188;2023-02-23T20:31:59;9.40;99.90
9941;DHT22;5009;50.656;7.188;2023-02-23T20:34:25;9.40;99.90
9941;DHT22;5009;50.656;7.188;2023-02-23T20:36:51;9.40;99.90
9941;DHT22;5009;50.656;7.188;2023-02-23T20:39:17;9.40;99.90
9941;DHT22;5009;50.656;7.188;2023-02-23T20:41:44;9.30;99.90
9941;DHT22;5009;50.656;7.188;2023-02-23T20:44:13;9.40;99.90
9941;DHT22;5009;50.656;7.188;2023-02-23T20:46:40;9.30;99.90
9941;DHT22;5009;50.656;7.188;2023-02-23T20:49:07;9.30;99.90
9941;DHT22;5009;50.656;7.188;2023-02-23T20:51:41;9.30;99.90
9941;DHT22;5009;50.656;7.188;2023-02-23T20:54:09;9.30;99.90
9941;DHT22;5009;50.656;7.188;2023-02-23T20:56:36;9.30;99.90
9941;DHT22;5009;50.656;7.188;2023-02-23T20:59:03;9.30;99.90
9941;DHT22;5009;50.656;7.188;2023-02-23T21:01:29;9.30;99.90
9941;DHT22;5009;50.656;7.188;2023-02-23T21:03:56;9.30;99.90
9941;DHT22;5009;50.656;7.188;2023-02-23T21:06:26;9.30;99.90
9941;DHT22;5009;50.656;7.188;2023-02-23T21:08:52;9.30;99.90
9941;DHT22;5009;50.656;7.188;2023-02-23T21:11:21;9.30;99.90
9941;DHT22;5009;50.656;7.188;2023-02-23T21:13:49;9.30;99.90
9941;DHT22;5009;50.656;7.188;2023-02-23T21:16:17;9.20;99.90
9941;DHT22;5009;50.656;7.188;2023-02-23T21:18:44;9.20;99.90
9941;DHT22;5009;50.656;7.188;2023-02-23T21:21:09;9.20;99.90
9941;DHT22;5009;50.656;7.188;2023-02-23T21:23:37;9.30;99.90
9941;DHT22;5009;50.656;7.188;2023-02-23T21:26:04;9.20;99.90
9941;DHT22;5009;50.656;7.188;2023-02-23T21:28:45;9.30;99.90
9941;DHT22;5009;50.656;7.188;2023-02-23T21:32:57;9.20;99.90
9941;DHT22;5009;50.656;7.188;2023-02-23T21:35:24;9.20;99.90
9941;DHT22;5009;50.656;7.188;2023-02-23T21:37:50;9.20;99.90
9941;DHT22;5009;50.656;7.188;2023-02-23T21:40:16;9.20;99.90
9941;DHT22;5009;50.656;7.188;2023-02-23T21:42:45;9.20;99.90
9941;DHT22;5009;50.656;7.188;2023-02-23T21:45:11;9.20;99.90
9941;DHT22;5009;50.656;7.188;2023-02-23T21:47:39;9.20;99.90
9941;DHT22;5009;50.656;7.188;2023-02-23T21:50:06;9.20;99.90
9941;DHT22;5009;50.656;7.188;2023-02-23T21:52:35;9.20;99.90